Sawtooth — V7MR8 — position and weather

sailwx.info

Track history (hours):
 
Tides and Currents Weather Stations Pressure Air Temp Water Temp Dewpoint Dewpoint Depression Visibility Wind Speed Wind Dir Waves Ship Positions

Sawtooth

Last reported at 2018-Jan-21 23:26 UTC. Time now 2018-Feb-25 17:43 UTC.
Position N 09°11' W 079°52'.
Warning: this ship's position is 34 days out of date.

Length 127 m; draft 5.4 m.

Type: Tanker. MMSI: 538006828.

Date/timePositionNaut miles runAvg speedWind from/ knotsBaromVisibWave heightAir tempDewpointWater temp
2018-Jan-21 23:26N 09°11' W 079°52'410.6
2018-Jan-21 23:00N 09°14' W 079°55'3 5.3
2018-Jan-21 22:30N 09°16' W 079°55'0 0.4
2018-Jan-21 22:00N 09°16' W 079°55'0 0.6
2018-Jan-21 21:30N 09°17' W 079°55'2 4.1
2018-Jan-21 21:00N 09°19' W 079°55'3 6.6
2018-Jan-21 20:30N 09°22' W 079°55'1 1.8
2018-Jan-21 19:58N 09°22' W 079°56'0 0.0
2018-Jan-21 19:28N 09°22' W 079°56'0 0.0
2018-Jan-21 18:58N 09°22' W 079°56'0 0.0
2018-Jan-21 18:28N 09°22' W 079°56'0 0.0
2018-Jan-21 17:58N 09°22' W 079°56'0 0.0
2018-Jan-21 17:28N 09°22' W 079°56'0 0.0
2018-Jan-21 16:58N 09°22' W 079°56'0 0.0
2018-Jan-21 16:28N 09°22' W 079°56'0 0.0
2018-Jan-21 15:58N 09°22' W 079°56'0 0.0
2018-Jan-21 15:25N 09°22' W 079°56'1 1.4
2018-Jan-21 15:00N 09°22' W 079°56'2 4.5
2018-Jan-21 14:30N 09°24' W 079°55'4 8.1
2018-Jan-21 14:00N 09°28' W 079°55'2 3.4
2018-Jan-21 13:30N 09°27' W 079°56'2 4.8
2018-Jan-21 13:00N 09°29' W 079°54'3 5.5
2018-Jan-21 12:30N 09°31' W 079°53'4 7.2
2018-Jan-21 12:00N 09°34' W 079°51'2 3.3
2018-Jan-21 11:30N 09°32' W 079°51'4 7.6
2018-Jan-21 11:01N 09°30' W 079°54'5 9.6
2018-Jan-21 10:30N 09°34' W 079°53'611.5
2018-Jan-21 10:00N 09°40' W 079°51'611.3
2018-Jan-21 09:30N 09°45' W 079°49'  
2018-Jan-12 05:38N 29°22' W 094°53'0 0.1
2018-Jan-12 05:29N 29°22' W 094°53'1 2.4
2018-Jan-12 05:00N 29°23' W 094°52'5 8.2
2018-Jan-12 04:22N 29°21' W 094°47'  
Track history (hours):
 
Tides and Currents Weather Stations Pressure Air Temp Water Temp Dewpoint Dewpoint Depression Visibility Wind Speed Wind Dir Waves Ship Positions

Sawtooth

Last reported at 2018-Jan-21 23:26 UTC. Time now 2018-Feb-25 17:43 UTC.
Position N 09°11' W 079°52'.
Warning: this ship's position is 34 days out of date.

Length 127 m; draft 5.4 m.

Type: Tanker. MMSI: 538006828.

Date/timePositionNaut miles runAvg speedWind from/ knotsBaromVisibWave heightAir tempDewpointWater temp
2018-Jan-21 23:26N 09°11' W 079°52'410.6
2018-Jan-21 23:00N 09°14' W 079°55'3 5.3
2018-Jan-21 22:30N 09°16' W 079°55'0 0.4
2018-Jan-21 22:00N 09°16' W 079°55'0 0.6
2018-Jan-21 21:30N 09°17' W 079°55'2 4.1
2018-Jan-21 21:00N 09°19' W 079°55'3 6.6
2018-Jan-21 20:30N 09°22' W 079°55'1 1.8
2018-Jan-21 19:58N 09°22' W 079°56'0 0.0
2018-Jan-21 19:28N 09°22' W 079°56'0 0.0
2018-Jan-21 18:58N 09°22' W 079°56'0 0.0
2018-Jan-21 18:28N 09°22' W 079°56'0 0.0
2018-Jan-21 17:58N 09°22' W 079°56'0 0.0
2018-Jan-21 17:28N 09°22' W 079°56'0 0.0
2018-Jan-21 16:58N 09°22' W 079°56'0 0.0
2018-Jan-21 16:28N 09°22' W 079°56'0 0.0
2018-Jan-21 15:58N 09°22' W 079°56'0 0.0
2018-Jan-21 15:25N 09°22' W 079°56'1 1.4
2018-Jan-21 15:00N 09°22' W 079°56'2 4.5
2018-Jan-21 14:30N 09°24' W 079°55'4 8.1
2018-Jan-21 14:00N 09°28' W 079°55'2 3.4
2018-Jan-21 13:30N 09°27' W 079°56'2 4.8
2018-Jan-21 13:00N 09°29' W 079°54'3 5.5
2018-Jan-21 12:30N 09°31' W 079°53'4 7.2
2018-Jan-21 12:00N 09°34' W 079°51'2 3.3
2018-Jan-21 11:30N 09°32' W 079°51'4 7.6
2018-Jan-21 11:01N 09°30' W 079°54'5 9.6
2018-Jan-21 10:30N 09°34' W 079°53'611.5
2018-Jan-21 10:00N 09°40' W 079°51'611.3
2018-Jan-21 09:30N 09°45' W 079°49'  
2018-Jan-12 05:38N 29°22' W 094°53'0 0.1
2018-Jan-12 05:29N 29°22' W 094°53'1 2.4
2018-Jan-12 05:00N 29°23' W 094°52'5 8.2
2018-Jan-12 04:22N 29°21' W 094°47'  

Dump ship's entire track history